Time;durP1;ratioP1;P1;durP2;ratioP2;P2;SDS_P1;SDS_P2;PMS_P1;PMS_P2;Temp;Humidity;BMP_temperature;BMP_pressure;BME280_temperature;BME280_humidity;BME280_pressure;Samples;Min_cycle;Max_cycle;Signal;HPM_P1;HPM_P2
2024/03/08 00:01:41;;;;;;;25.30;14.73;;;4.60;98.00;;;;;;5073337;28;20584;-61
2024/03/08 00:04:08;;;;;;;21.40;12.47;;;4.60;98.20;;;;;;5073178;28;20533;-60
2024/03/08 00:06:33;;;;;;;27.35;14.05;;;4.40;98.40;;;;;;5073094;28;20184;-60
2024/03/08 00:08:59;;;;;;;25.20;13.67;;;4.50;98.30;;;;;;5072752;28;20198;-60
2024/03/08 00:11:25;;;;;;;23.70;14.10;;;4.50;98.20;;;;;;5073008;28;20585;-60
2024/03/08 00:13:53;;;;;;;26.60;15.10;;;4.50;98.20;;;;;;5073004;28;20169;-60
2024/03/08 00:16:23;;;;;;;25.70;14.40;;;4.50;98.20;;;;;;5072981;28;21050;-59
2024/03/08 00:18:49;;;;;;;25.05;14.05;;;4.50;98.10;;;;;;5067208;28;20209;-61
2024/03/08 00:21:15;;;;;;;24.33;13.60;;;4.50;98.50;;;;;;5073041;28;20200;-61
2024/03/08 00:23:41;;;;;;;28.13;13.68;;;4.40;98.20;;;;;;5072809;28;20169;-60
2024/03/08 00:26:07;;;;;;;18.92;13.38;;;4.40;98.20;;;;;;5072791;28;20228;-60
2024/03/08 00:28:34;;;;;;;18.07;14.10;;;4.40;98.30;;;;;;5072425;28;20612;-60
2024/03/08 00:31:00;;;;;;;29.27;15.77;;;4.40;98.10;;;;;;5072617;28;20231;-60
2024/03/08 00:33:27;;;;;;;20.53;15.10;;;4.20;98.30;;;;;;5072275;28;20573;-60
2024/03/08 00:35:56;;;;;;;22.80;11.73;;;4.10;98.50;;;;;;5072541;28;20414;-60
2024/03/08 00:38:21;;;;;;;29.20;14.25;;;3.90;98.80;;;;;;5072137;28;20197;-60
2024/03/08 00:40:47;;;;;;;25.70;14.20;;;3.90;99.20;;;;;;5072468;28;20657;-60
2024/03/08 00:43:13;;;;;;;15.27;10.97;;;4.00;98.90;;;;;;5072387;28;20174;-60
2024/03/08 00:45:38;;;;;;;21.38;12.05;;;4.00;98.80;;;;;;5072334;28;20522;-61
2024/03/08 00:48:05;;;;;;;25.73;13.50;;;4.00;98.80;;;;;;5071880;28;20216;-60
2024/03/08 00:50:31;;;;;;;25.75;13.35;;;4.00;98.70;;;;;;5072255;28;20176;-60
2024/03/08 00:52:56;;;;;;;21.30;11.93;;;4.10;98.50;;;;;;5072256;28;20659;-60
2024/03/08 00:55:22;;;;;;;24.73;14.23;;;4.10;98.80;;;;;;5054212;28;20180;-60
2024/03/08 00:57:48;;;;;;;22.43;12.57;;;4.20;98.40;;;;;;5071679;28;20205;-60
2024/03/08 01:00:14;;;;;;;24.40;14.57;;;4.20;98.40;;;;;;5072010;28;20197;-60
2024/03/08 01:02:39;;;;;;;24.63;11.95;;;4.00;98.40;;;;;;5072010;28;20161;-60
2024/03/08 01:05:07;;;;;;;20.80;12.83;;;4.00;98.70;;;;;;5072002;28;20173;-60
2024/03/08 01:07:34;;;;;;;20.48;12.18;;;4.00;98.60;;;;;;5071865;28;20463;-60
2024/03/08 01:10:00;;;;;;;19.95;14.00;;;4.00;98.70;;;;;;5071783;28;20559;-60
2024/03/08 01:12:26;;;;;;;25.48;12.45;;;4.00;98.70;;;;;;5071892;28;20576;-60
2024/03/08 01:14:51;;;;;;;19.57;11.63;;;4.10;98.50;;;;;;5053817;28;20180;-60
2024/03/08 01:17:17;;;;;;;17.33;11.80;;;4.10;98.40;;;;;;5071714;28;20201;-60
2024/03/08 01:19:44;;;;;;;20.60;13.20;;;3.90;98.20;;;;;;5069173;28;20165;-61
2024/03/08 01:22:10;;;;;;;26.48;12.73;;;3.90;98.40;;;;;;5071432;28;20174;-60
2024/03/08 01:24:37;;;;;;;19.70;13.10;;;3.90;98.30;;;;;;5071698;28;20210;-61
2024/03/08 01:27:03;;;;;;;24.85;12.40;;;3.80;98.20;;;;;;5069130;28;20212;-60
2024/03/08 01:29:32;;;;;;;26.88;13.55;;;3.70;98.40;;;;;;5071349;28;20222;-61
2024/03/08 01:32:00;;;;;;;24.38;13.27;;;3.70;98.60;;;;;;5053602;28;20173;-61
2024/03/08 01:34:28;;;;;;;19.20;9.95;;;3.60;98.60;;;;;;5053576;28;20276;-60
2024/03/08 01:36:55;;;;;;;16.55;9.68;;;3.60;98.70;;;;;;5071410;28;20208;-60
2024/03/08 01:39:21;;;;;;;21.05;10.27;;;3.40;98.70;;;;;;5071176;28;20169;-60
2024/03/08 01:41:47;;;;;;;20.48;11.95;;;3.30;99.00;;;;;;5071513;28;20161;-61
2024/03/08 01:44:17;;;;;;;19.47;10.60;;;3.10;99.10;;;;;;5070804;28;20601;-60
2024/03/08 01:46:47;;;;;;;16.02;10.55;;;3.10;99.00;;;;;;5071436;28;20502;-60
2024/03/08 01:49:14;;;;;;;19.05;10.30;;;2.90;99.20;;;;;;5053197;28;20193;-60
2024/03/08 01:51:41;;;;;;;22.38;11.23;;;2.90;99.50;;;;;;5071453;28;20178;-60
2024/03/08 01:54:09;;;;;;;18.98;11.05;;;2.70;99.30;;;;;;5071340;28;20192;-60
2024/03/08 01:56:36;;;;;;;22.55;12.32;;;2.70;99.50;;;;;;5071206;28;20203;-60
2024/03/08 01:59:02;;;;;;;23.60;10.52;;;2.60;99.70;;;;;;5053323;28;20556;-60
2024/03/08 02:01:28;;;;;;;20.15;12.20;;;2.50;99.90;;;;;;5071407;28;20536;-60
2024/03/08 02:03:54;;;;;;;23.65;10.82;;;2.40;99.90;;;;;;5071245;28;20220;-60
2024/03/08 02:06:20;;;;;;;20.37;13.93;;;2.40;99.90;;;;;;5071289;28;20167;-60
2024/03/08 02:08:46;;;;;;;24.20;13.87;;;2.30;99.90;;;;;;5070946;28;20246;-60
2024/03/08 02:11:12;;;;;;;18.35;10.50;;;2.30;99.90;;;;;;5071147;28;20660;-60
2024/03/08 02:13:38;;;;;;;21.02;11.57;;;2.30;99.90;;;;;;5071200;28;20194;-60
2024/03/08 02:16:07;;;;;;;30.47;11.97;;;2.30;99.90;;;;;;5071171;28;20177;-60
2024/03/08 02:18:34;;;;;;;17.42;10.15;;;2.30;99.90;;;;;;5070874;28;20246;-60
2024/03/08 02:21:04;;;;;;;26.83;10.02;;;2.20;99.90;;;;;;5071241;28;20208;-60
2024/03/08 02:23:29;;;;;;;17.60;9.57;;;2.10;99.90;;;;;;5071031;28;20172;-60
2024/03/08 02:25:56;;;;;;;17.07;9.10;;;2.10;99.90;;;;;;5071024;28;20179;-60
2024/03/08 02:28:22;;;;;;;18.55;11.35;;;2.10;99.90;;;;;;5070748;28;20660;-60
2024/03/08 02:30:50;;;;;;;22.35;12.30;;;2.00;99.90;;;;;;5071025;28;20183;-60
2024/03/08 02:33:17;;;;;;;21.80;10.38;;;2.00;99.90;;;;;;5065926;28;20182;-60
2024/03/08 02:35:47;;;;;;;19.42;11.27;;;2.00;99.90;;;;;;5070954;28;20188;-60
2024/03/08 02:38:16;;;;;;;15.65;9.70;;;2.00;99.90;;;;;;5070493;28;20217;-60
2024/03/08 02:40:43;;;;;;;18.77;10.00;;;2.00;99.90;;;;;;5070887;28;20208;-60
2024/03/08 02:43:09;;;;;;;23.35;9.75;;;1.90;99.90;;;;;;5070929;28;20249;-60
2024/03/08 02:45:36;;;;;;;19.95;10.93;;;2.00;99.90;;;;;;5071046;28;20181;-60
2024/03/08 02:48:01;;;;;;;22.50;11.50;;;2.00;99.90;;;;;;5070175;28;20385;-60
2024/03/08 02:50:27;;;;;;;25.57;12.27;;;2.00;99.90;;;;;;5070866;28;20617;-60
2024/03/08 02:52:52;;;;;;;17.53;9.67;;;2.00;99.90;;;;;;5070680;28;20180;-60
2024/03/08 02:55:18;;;;;;;14.07;10.73;;;1.90;99.90;;;;;;5072226;28;20183;-60
2024/03/08 02:57:44;;;;;;;27.37;11.67;;;1.90;99.90;;;;;;5073997;28;20703;-60
2024/03/08 03:00:10;;;;;;;18.57;10.47;;;1.80;99.90;;;;;;5066556;28;20237;-60
2024/03/08 03:02:37;;;;;;;23.27;12.10;;;1.80;99.90;;;;;;5074048;28;20177;-60
2024/03/08 03:05:05;;;;;;;29.95;12.40;;;1.80;99.90;;;;;;5073992;28;20653;-60
2024/03/08 03:07:33;;;;;;;26.90;11.57;;;1.80;99.90;;;;;;5060261;28;20227;-60
2024/03/08 03:10:00;;;;;;;21.27;11.73;;;1.80;99.90;;;;;;5062875;28;20199;-60
2024/03/08 03:12:29;;;;;;;21.35;12.18;;;1.80;99.90;;;;;;5073877;28;20678;-60
2024/03/08 03:14:56;;;;;;;23.20;12.40;;;1.80;99.90;;;;;;5057086;28;20669;-60
2024/03/08 03:17:24;;;;;;;18.65;10.73;;;1.80;99.90;;;;;;5053754;28;20667;-60
2024/03/08 03:19:51;;;;;;;19.65;9.60;;;1.80;99.90;;;;;;5043309;28;20339;-60
2024/03/08 03:22:18;;;;;;;23.08;11.75;;;1.80;99.90;;;;;;5073947;28;20225;-60
2024/03/08 03:24:44;;;;;;;18.73;9.90;;;1.70;99.90;;;;;;5074094;28;20532;-60
2024/03/08 03:27:12;;;;;;;17.77;7.95;;;1.60;99.90;;;;;;5073790;28;20195;-60
2024/03/08 03:29:45;;;;;;;19.10;9.45;;;1.60;99.90;;;;;;5073616;28;20187;-60
2024/03/08 03:32:14;;;;;;;14.38;8.20;;;1.70;99.90;;;;;;5073560;28;20188;-60
2024/03/08 03:34:41;;;;;;;18.80;8.52;;;1.60;99.90;;;;;;5073783;28;20193;-60
2024/03/08 03:37:08;;;;;;;13.20;8.07;;;1.70;99.90;;;;;;5073498;28;20730;-60
2024/03/08 03:39:34;;;;;;;14.45;8.57;;;1.70;99.90;;;;;;5073545;28;20241;-60
2024/03/08 03:42:03;;;;;;;14.73;9.27;;;1.70;99.90;;;;;;5073549;28;20160;-60
2024/03/08 03:44:29;;;;;;;19.27;8.20;;;1.80;99.90;;;;;;5072301;28;20414;-60
2024/03/08 03:46:54;;;;;;;20.23;8.43;;;1.70;99.90;;;;;;5073280;28;20644;-60
2024/03/08 03:49:20;;;;;;;17.10;7.93;;;1.70;99.90;;;;;;5067931;28;20284;-62
2024/03/08 03:51:46;;;;;;;17.33;8.50;;;1.50;99.90;;;;;;5072092;28;20183;-62
2024/03/08 03:54:13;;;;;;;15.20;6.78;;;1.60;99.90;;;;;;5071691;28;20172;-62
2024/03/08 03:56:39;;;;;;;15.82;6.80;;;1.70;99.90;;;;;;5073181;28;20211;-62
2024/03/08 03:59:06;;;;;;;15.15;8.63;;;1.70;99.90;;;;;;5070988;28;20182;-62
2024/03/08 04:01:33;;;;;;;13.65;7.22;;;1.80;99.90;;;;;;5066867;28;20184;-62
2024/03/08 04:03:58;;;;;;;14.63;8.35;;;1.80;99.90;;;;;;5072887;28;20191;-62
2024/03/08 04:06:24;;;;;;;18.67;7.57;;;1.80;99.90;;;;;;5072112;28;20211;-62
2024/03/08 04:08:50;;;;;;;14.73;8.17;;;1.80;99.90;;;;;;5072485;28;20236;-62
2024/03/08 04:11:16;;;;;;;14.30;6.90;;;1.80;99.90;;;;;;5072766;28;20673;-62
2024/03/08 04:13:43;;;;;;;13.20;8.55;;;1.80;99.90;;;;;;5072723;28;20172;-62
2024/03/08 04:16:11;;;;;;;14.43;6.82;;;1.80;99.90;;;;;;5054723;28;20203;-62
2024/03/08 04:18:37;;;;;;;15.18;7.38;;;1.70;99.90;;;;;;5072273;28;20604;-62
2024/03/08 04:21:06;;;;;;;15.30;6.35;;;1.60;99.90;;;;;;5072442;28;20703;-62
2024/03/08 04:23:35;;;;;;;10.60;6.38;;;1.60;99.90;;;;;;5072484;28;20178;-62
2024/03/08 04:26:03;;;;;;;7.82;5.68;;;1.70;99.90;;;;;;5072553;28;20174;-62
2024/03/08 04:28:29;;;;;;;13.02;6.15;;;1.70;99.90;;;;;;5072123;28;20198;-62
2024/03/08 04:30:54;;;;;;;19.00;8.93;;;1.70;99.90;;;;;;5072499;28;20183;-62
2024/03/08 04:33:21;;;;;;;11.57;7.60;;;1.60;99.90;;;;;;5072121;28;20225;-62
2024/03/08 04:35:47;;;;;;;14.85;6.55;;;1.60;99.90;;;;;;5072467;28;20649;-62
2024/03/08 04:38:13;;;;;;;11.87;6.67;;;1.60;99.90;;;;;;5071904;28;20236;-62
2024/03/08 04:40:39;;;;;;;14.53;7.30;;;1.70;99.90;;;;;;5072151;28;20444;-62
2024/03/08 04:43:06;;;;;;;6.35;5.20;;;1.60;99.90;;;;;;5072113;28;20208;-62
2024/03/08 04:45:31;;;;;;;12.38;5.50;;;1.60;99.90;;;;;;5072268;28;20254;-62
2024/03/08 04:47:57;;;;;;;9.73;5.33;;;1.60;99.90;;;;;;5071598;28;20247;-62
2024/03/08 04:50:23;;;;;;;11.57;4.47;;;1.60;99.90;;;;;;5067212;28;20272;-62
2024/03/08 04:52:49;;;;;;;8.10;5.82;;;1.50;99.90;;;;;;5072247;28;20191;-62
2024/03/08 04:55:14;;;;;;;10.73;6.20;;;1.60;99.90;;;;;;5072189;28;20172;-62
2024/03/08 04:57:41;;;;;;;10.03;5.77;;;1.60;99.90;;;;;;5071861;28;20630;-61
2024/03/08 05:00:10;;;;;;;11.00;6.25;;;1.60;99.90;;;;;;5072181;28;20166;-62
2024/03/08 05:02:38;;;;;;;10.43;5.20;;;1.60;99.90;;;;;;5071921;28;20660;-62
2024/03/08 05:05:06;;;;;;;7.82;4.60;;;1.60;99.90;;;;;;5071969;28;20174;-62
2024/03/08 05:07:32;;;;;;;15.30;8.32;;;1.50;99.90;;;;;;5071868;28;20542;-62
2024/03/08 05:09:58;;;;;;;9.75;4.32;;;1.40;99.90;;;;;;5071841;28;20261;-62
2024/03/08 05:12:24;;;;;;;8.98;4.78;;;1.30;99.90;;;;;;5071822;28;20229;-62
2024/03/08 05:14:51;;;;;;;8.00;5.05;;;1.30;99.90;;;;;;5071729;28;20212;-62
2024/03/08 05:17:17;;;;;;;10.97;6.07;;;1.40;99.90;;;;;;5071542;28;20210;-62
2024/03/08 05:19:43;;;;;;;11.77;6.00;;;1.40;99.90;;;;;;5070494;28;20661;-62
2024/03/08 05:22:09;;;;;;;9.13;5.70;;;1.40;99.90;;;;;;5071831;28;20178;-62
2024/03/08 05:24:35;;;;;;;12.37;6.30;;;1.40;99.90;;;;;;5053839;28;20716;-62
2024/03/08 05:27:02;;;;;;;9.50;4.85;;;1.20;99.90;;;;;;5071692;28;20200;-62
2024/03/08 05:29:28;;;;;;;13.52;6.93;;;1.30;99.90;;;;;;5071358;28;20187;-61
2024/03/08 05:31:55;;;;;;;9.60;6.25;;;1.30;99.90;;;;;;5071514;28;20266;-61
2024/03/08 05:34:21;;;;;;;7.85;5.05;;;1.30;99.90;;;;;;5071821;28;20384;-61
2024/03/08 05:36:50;;;;;;;10.45;5.97;;;1.30;99.90;;;;;;5071426;28;20242;-61
2024/03/08 05:39:16;;;;;;;8.25;4.60;;;1.40;99.90;;;;;;5054200;28;20682;-62
2024/03/08 05:41:43;;;;;;;4.85;4.00;;;1.40;99.90;;;;;;5071507;28;20168;-61
2024/03/08 05:44:09;;;;;;;11.27;5.13;;;1.40;99.90;;;;;;5071357;28;20187;-61
2024/03/08 05:46:35;;;;;;;9.65;5.70;;;1.40;99.90;;;;;;5071734;28;20179;-61
2024/03/08 05:49:09;;;;;;;9.10;5.72;;;1.40;99.90;;;;;;5071108;28;20216;-61
2024/03/08 05:51:36;;;;;;;11.02;4.72;;;1.40;99.90;;;;;;5071452;28;20256;-61
2024/03/08 05:54:07;;;;;;;8.32;3.92;;;1.30;99.90;;;;;;5071825;28;20663;-61
2024/03/08 05:56:33;;;;;;;5.55;4.05;;;1.30;99.90;;;;;;5071311;28;20211;-61
2024/03/08 05:58:58;;;;;;;7.20;3.92;;;1.40;99.90;;;;;;5071143;28;20245;-61
2024/03/08 06:01:28;;;;;;;9.47;5.67;;;1.40;99.90;;;;;;5071378;28;20176;-61
2024/03/08 06:03:57;;;;;;;8.85;6.43;;;1.30;99.90;;;;;;5071208;28;20246;-61
2024/03/08 06:06:23;;;;;;;6.25;3.92;;;1.30;99.90;;;;;;5071272;28;20543;-61
2024/03/08 06:08:50;;;;;;;10.05;4.93;;;1.20;99.90;;;;;;5070815;28;20270;-61
2024/03/08 06:11:17;;;;;;;6.82;4.20;;;1.30;99.90;;;;;;5071155;28;20173;-61
2024/03/08 06:13:43;;;;;;;6.80;4.05;;;1.30;99.90;;;;;;5071169;28;20593;-61
2024/03/08 06:16:09;;;;;;;5.00;2.55;;;1.40;99.90;;;;;;5070952;28;20182;-61
2024/03/08 06:18:39;;;;;;;5.57;3.77;;;1.50;99.90;;;;;;5071041;28;20195;-61
2024/03/08 06:21:05;;;;;;;6.13;4.00;;;1.40;99.90;;;;;;5053099;28;20233;-61
2024/03/08 06:23:32;;;;;;;6.07;3.90;;;1.50;99.90;;;;;;5071085;28;20191;-61
2024/03/08 06:25:57;;;;;;;5.85;4.38;;;1.40;99.90;;;;;;5070981;28;20202;-61
2024/03/08 06:28:23;;;;;;;7.30;3.70;;;1.40;99.90;;;;;;5070572;28;20228;-61
2024/03/08 06:30:50;;;;;;;9.93;4.57;;;1.40;99.90;;;;;;5073477;28;20174;-62
2024/03/08 06:33:16;;;;;;;4.95;4.13;;;1.40;99.90;;;;;;5074822;28;20680;-61
2024/03/08 06:35:42;;;;;;;8.53;4.93;;;1.50;99.90;;;;;;5074865;28;20180;-61
2024/03/08 06:38:11;;;;;;;6.80;4.00;;;1.60;99.90;;;;;;5074460;28;20211;-61
2024/03/08 06:40:37;;;;;;;7.95;2.97;;;1.70;99.90;;;;;;5069379;28;20191;-61
2024/03/08 06:43:05;;;;;;;6.90;3.77;;;1.70;99.70;;;;;;5074436;28;20187;-61
2024/03/08 06:45:31;;;;;;;7.50;3.97;;;1.80;99.70;;;;;;5074430;28;20255;-61
2024/03/08 06:47:57;;;;;;;5.70;3.85;;;1.80;99.90;;;;;;5074037;28;20216;-61
2024/03/08 06:50:23;;;;;;;6.77;4.40;;;1.70;99.90;;;;;;5074579;28;20275;-61
2024/03/08 06:52:53;;;;;;;11.27;6.17;;;1.80;99.90;;;;;;5074486;28;20164;-61
2024/03/08 06:55:19;;;;;;;9.75;5.93;;;1.80;99.90;;;;;;5074563;28;20171;-61
2024/03/08 06:57:45;;;;;;;8.90;5.07;;;1.80;99.90;;;;;;5074026;28;20214;-61
2024/03/08 07:00:13;;;;;;;12.07;4.73;;;1.80;99.90;;;;;;5074418;28;20176;-61
2024/03/08 07:02:42;;;;;;;5.72;3.30;;;1.90;99.80;;;;;;5074340;28;20223;-61
2024/03/08 07:05:10;;;;;;;8.05;4.22;;;1.80;99.80;;;;;;5074361;28;20225;-61
2024/03/08 07:07:36;;;;;;;6.70;5.10;;;1.90;99.90;;;;;;5074074;28;20224;-61
2024/03/08 07:10:01;;;;;;;8.73;4.37;;;1.90;99.90;;;;;;5074082;28;20169;-61
2024/03/08 07:12:27;;;;;;;5.63;3.70;;;2.00;99.90;;;;;;5074154;28;20756;-61
2024/03/08 07:14:53;;;;;;;10.87;5.70;;;2.40;99.90;;;;;;5074194;28;20168;-61
2024/03/08 07:17:18;;;;;;;12.43;8.13;;;3.90;99.90;;;;;;5073665;28;20216;-62
2024/03/08 07:19:45;;;;;;;7.03;5.50;;;6.20;99.90;;;;;;5074155;28;20169;-62
2024/03/08 07:22:11;;;;;;;7.10;4.97;;;8.70;99.90;;;;;;5073816;28;20169;-59
2024/03/08 07:27:05;;;;;;;18.43;16.40;;;13.40;84.80;;;;;;5073910;28;20943;-60
2024/03/08 07:29:32;;;;;;;11.00;8.67;;;15.30;78.10;;;;;;5073698;28;20194;-60
2024/03/08 07:32:12;;;;;;;6.73;6.10;;;16.80;65.90;;;;;;5072568;28;21096;-61
2024/03/08 07:34:39;;;;;;;10.07;9.07;;;17.80;59.80;;;;;;5067114;28;20386;-62
2024/03/08 07:37:06;;;;;;;12.00;9.90;;;19.10;57.60;;;;;;5073395;28;20465;-62
2024/03/08 07:39:31;;;;;;;12.87;11.57;;;20.30;53.90;;;;;;5073425;28;20407;-62
2024/03/08 07:41:57;;;;;;;33.03;20.87;;;21.20;49.10;;;;;;5070105;28;20424;-63
2024/03/08 07:44:23;;;;;;;20.33;14.20;;;21.70;47.20;;;;;;5073470;28;20169;-61
2024/03/08 07:46:49;;;;;;;19.23;10.90;;;22.40;43.80;;;;;;5073331;28;20205;-61
2024/03/08 07:49:15;;;;;;;15.93;9.07;;;22.90;43.10;;;;;;5073158;28;20939;-61
2024/03/08 07:51:41;;;;;;;5.43;4.73;;;22.90;42.20;;;;;;5073913;28;20661;-61
2024/03/08 07:54:09;;;;;;;4.67;4.17;;;23.20;41.80;;;;;;5073296;28;20177;-61
2024/03/08 07:56:36;;;;;;;5.10;4.60;;;23.80;40.70;;;;;;5073478;28;20467;-63
2024/03/08 07:59:04;;;;;;;5.33;4.63;;;24.40;40.20;;;;;;5073006;28;20963;-62
2024/03/08 08:01:30;;;;;;;4.53;4.13;;;25.10;38.90;;;;;;5073251;28;20404;-62
2024/03/08 08:03:56;;;;;;;5.20;4.40;;;25.50;37.90;;;;;;5073200;28;20419;-63
2024/03/08 08:06:23;;;;;;;3.70;3.40;;;25.90;37.00;;;;;;5055448;28;20416;-63
2024/03/08 08:08:49;;;;;;;3.43;3.10;;;26.00;36.20;;;;;;5072798;28;20829;-62
2024/03/08 08:11:15;;;;;;;2.70;2.50;;;26.10;36.00;;;;;;5073093;28;20502;-62
2024/03/08 08:13:43;;;;;;;4.97;3.40;;;26.30;35.50;;;;;;5055054;28;20932;-61
2024/03/08 08:16:09;;;;;;;6.63;4.47;;;26.70;34.80;;;;;;5072975;28;20491;-63
2024/03/08 08:18:35;;;;;;;6.97;5.07;;;26.90;34.60;;;;;;5054546;28;20436;-62
2024/03/08 08:21:01;;;;;;;5.70;5.03;;;26.80;34.10;;;;;;5072854;28;20442;-62
2024/03/08 08:23:26;;;;;;;10.47;7.90;;;27.10;33.60;;;;;;5072862;28;20408;-62
2024/03/08 08:25:52;;;;;;;16.00;13.00;;;27.30;33.40;;;;;;5072685;28;20392;-62
2024/03/08 08:28:18;;;;;;;7.40;6.70;;;27.20;32.50;;;;;;5072400;28;20192;-62
2024/03/08 08:30:44;;;;;;;5.17;4.67;;;27.20;33.00;;;;;;5072871;28;20282;-62
2024/03/08 08:33:10;;;;;;;7.00;5.80;;;27.30;32.90;;;;;;5072528;28;20516;-63
2024/03/08 08:35:39;;;;;;;6.10;5.50;;;27.60;32.80;;;;;;5072656;28;20452;-62
2024/03/08 08:38:05;;;;;;;4.00;3.70;;;27.80;31.90;;;;;;5072180;28;20553;-63
2024/03/08 08:40:33;;;;;;;3.40;3.10;;;27.50;31.90;;;;;;5072590;28;20408;-62
2024/03/08 08:42:59;;;;;;;3.27;2.97;;;27.30;32.00;;;;;;5072176;28;20412;-62
2024/03/08 08:45:25;;;;;;;4.10;3.43;;;27.70;31.80;;;;;;5072138;28;20446;-62
2024/03/08 08:47:51;;;;;;;3.90;3.47;;;28.10;31.40;;;;;;5071966;28;20513;-62
2024/03/08 08:50:22;;;;;;;3.07;2.87;;;28.20;30.70;;;;;;5072359;28;20905;-62
2024/03/08 08:52:49;;;;;;;4.30;3.60;;;28.40;30.40;;;;;;5072058;28;20404;-62
2024/03/08 08:55:15;;;;;;;3.33;2.80;;;28.40;30.70;;;;;;5072201;28;20490;-61
2024/03/08 08:57:41;;;;;;;3.63;2.97;;;28.50;31.40;;;;;;5071753;28;20557;-61
2024/03/08 09:00:08;;;;;;;3.50;3.20;;;28.70;30.70;;;;;;5071849;28;20239;-62
2024/03/08 09:02:34;;;;;;;3.70;3.37;;;29.00;30.30;;;;;;5072155;28;20412;-62
2024/03/08 09:05:03;;;;;;;4.40;3.13;;;29.20;30.20;;;;;;5072073;28;20510;-61
2024/03/08 09:07:28;;;;;;;3.90;3.23;;;28.80;29.10;;;;;;5071920;28;20654;-62
2024/03/08 09:09:57;;;;;;;3.33;2.77;;;28.90;30.00;;;;;;5071650;28;20418;-62
2024/03/08 09:12:23;;;;;;;6.47;3.93;;;29.10;29.90;;;;;;5071868;28;20212;-62
2024/03/08 09:14:49;;;;;;;3.20;2.90;;;28.70;29.80;;;;;;5071856;28;20929;-62
2024/03/08 09:17:17;;;;;;;3.20;2.83;;;28.70;30.00;;;;;;5071534;28;20487;-62
2024/03/08 09:19:43;;;;;;;3.50;2.17;;;28.90;29.90;;;;;;5071500;28;20169;-62
2024/03/08 09:22:10;;;;;;;3.37;2.47;;;28.70;29.00;;;;;;5071569;28;20833;-62
2024/03/08 09:24:36;;;;;;;3.20;2.57;;;28.70;29.40;;;;;;5071533;28;20417;-62
2024/03/08 09:27:01;;;;;;;2.80;2.47;;;29.20;28.90;;;;;;5071234;28;20496;-62
2024/03/08 09:29:28;;;;;;;3.43;1.83;;;29.40;28.40;;;;;;5071148;28;20786;-62
2024/03/08 09:31:53;;;;;;;2.87;2.60;;;29.30;28.30;;;;;;5071663;28;20209;-61
2024/03/08 09:34:19;;;;;;;2.50;2.30;;;28.50;28.90;;;;;;5071598;28;20534;-62
2024/03/08 09:36:45;;;;;;;3.20;2.90;;;28.30;28.80;;;;;;5071301;28;20201;-61
2024/03/08 09:39:16;;;;;;;3.87;2.63;;;27.70;28.40;;;;;;5071291;28;20180;-61
2024/03/08 09:41:43;;;;;;;3.20;2.90;;;26.60;28.70;;;;;;5071487;28;20414;-61
2024/03/08 09:44:09;;;;;;;3.80;3.50;;;25.70;30.00;;;;;;5071511;28;20885;-61
2024/03/08 09:46:35;;;;;;;6.30;3.03;;;24.70;30.40;;;;;;5071462;28;20435;-61
2024/03/08 09:49:01;;;;;;;4.03;3.73;;;24.10;31.70;;;;;;5071025;28;20530;-61
2024/03/08 09:51:35;;;;;;;3.53;2.90;;;23.80;31.40;;;;;;5071472;28;20426;-61
2024/03/08 09:54:04;;;;;;;3.93;3.57;;;23.30;32.60;;;;;;5071371;28;20408;-61
2024/03/08 09:56:35;;;;;;;3.40;3.10;;;22.90;32.70;;;;;;5071252;28;20455;-61
2024/03/08 10:01:45;;;;;;;3.33;2.73;;;22.90;33.10;;;;;;5071620;28;20406;-61
2024/03/08 10:04:12;;;;;;;3.67;2.60;;;23.50;31.80;;;;;;5072436;28;20494;-61
2024/03/08 10:06:37;;;;;;;5.77;4.30;;;22.90;30.70;;;;;;5077753;28;20169;-61
2024/03/08 10:09:05;;;;;;;3.97;3.60;;;22.50;31.70;;;;;;5077752;28;20856;-61
2024/03/08 10:11:31;;;;;;;3.43;2.90;;;21.80;32.30;;;;;;5077894;28;20603;-61
2024/03/08 10:13:57;;;;;;;3.37;3.07;;;21.50;32.10;;;;;;5077847;28;20417;-61
2024/03/08 10:16:24;;;;;;;5.40;3.50;;;20.50;33.10;;;;;;5077142;28;20207;-61
2024/03/08 10:18:49;;;;;;;6.90;4.20;;;19.70;34.30;;;;;;5077322;28;20189;-61
2024/03/08 10:21:17;;;;;;;7.67;5.60;;;20.30;34.80;;;;;;5077632;28;20890;-61
2024/03/08 10:23:43;;;;;;;4.40;4.00;;;20.40;34.50;;;;;;5077518;28;20633;-61
2024/03/08 10:26:18;;;;;;;6.00;4.63;;;21.20;34.80;;;;;;5077908;28;20485;-61
2024/03/08 10:28:48;;;;;;;4.80;4.30;;;21.60;34.70;;;;;;5077366;28;20423;-61
2024/03/08 10:31:15;;;;;;;5.73;3.80;;;21.80;33.50;;;;;;5077776;28;20387;-61
2024/03/08 10:33:41;;;;;;;4.63;3.30;;;21.80;32.40;;;;;;5077666;28;20752;-61
2024/03/08 10:36:10;;;;;;;6.13;3.03;;;20.90;32.40;;;;;;5077550;28;20386;-61
2024/03/08 10:38:39;;;;;;;4.00;3.27;;;20.00;33.90;;;;;;5077325;28;20437;-61
2024/03/08 10:41:06;;;;;;;3.20;2.90;;;19.50;33.40;;;;;;5077830;28;20778;-61
2024/03/08 10:43:45;;;;;;;3.43;2.80;;;19.30;33.90;;;;;;5077667;28;20414;-61
2024/03/08 10:46:14;;;;;;;2.97;2.67;;;18.50;35.40;;;;;;5077600;28;20406;-61
2024/03/08 10:48:44;;;;;;;4.50;3.87;;;17.60;36.20;;;;;;5077206;28;20971;-61
2024/03/08 10:51:12;;;;;;;3.97;2.70;;;17.10;37.80;;;;;;5077788;28;20756;-61
2024/03/08 10:53:42;;;;;;;4.80;3.90;;;16.70;36.90;;;;;;5076386;28;20923;-61
2024/03/08 10:56:09;;;;;;;3.10;2.90;;;16.30;37.70;;;;;;5077422;28;20405;-61
2024/03/08 10:58:36;;;;;;;5.33;3.60;;;16.20;38.90;;;;;;5077146;28;20490;-61
2024/03/08 11:01:02;;;;;;;5.37;3.23;;;16.00;38.80;;;;;;5077389;28;20403;-61
2024/03/08 11:03:40;;;;;;;5.27;3.77;;;15.80;40.30;;;;;;5077493;28;20826;-61
2024/03/08 11:06:15;;;;;;;4.77;4.30;;;15.70;41.00;;;;;;5077640;28;20838;-61
2024/03/08 11:08:41;;;;;;;6.33;4.03;;;15.70;41.00;;;;;;5077173;28;20431;-61
2024/03/08 11:11:27;;;;;;;4.30;3.30;;;15.20;42.40;;;;;;5077341;28;20857;-61
2024/03/08 11:13:54;;;;;;;3.87;3.50;;;14.90;41.30;;;;;;5077636;28;20799;-60
2024/03/08 11:16:40;;;;;;;4.80;3.87;;;14.60;42.10;;;;;;5075936;28;20411;-61
2024/03/08 11:19:10;;;;;;;4.40;4.00;;;14.10;43.60;;;;;;5073920;28;20406;-60
2024/03/08 11:21:39;;;;;;;4.73;2.90;;;14.20;43.50;;;;;;5074107;28;20443;-60
2024/03/08 11:24:23;;;;;;;3.60;2.80;;;14.00;43.00;;;;;;5074287;28;20828;-61
2024/03/08 11:26:49;;;;;;;3.00;2.67;;;14.10;42.10;;;;;;5073850;28;20404;-60
2024/03/08 11:29:35;;;;;;;5.37;3.67;;;14.40;41.00;;;;;;5073796;28;20481;-60
2024/03/08 11:32:09;;;;;;;4.30;3.60;;;14.20;41.80;;;;;;5073896;28;20200;-60
2024/03/08 11:34:35;;;;;;;3.63;3.30;;;13.60;41.70;;;;;;5074083;28;20404;-60
2024/03/08 11:37:05;;;;;;;6.23;3.00;;;13.60;43.40;;;;;;5073568;28;20512;-60
2024/03/08 11:39:31;;;;;;;7.13;3.57;;;13.70;44.80;;;;;;5073342;28;20404;-60
2024/03/08 11:41:56;;;;;;;3.93;3.20;;;13.50;42.90;;;;;;5073714;28;20748;-60
2024/03/08 11:44:27;;;;;;;4.10;2.90;;;12.60;43.50;;;;;;5073740;28;20403;-60
2024/03/08 11:46:53;;;;;;;4.90;3.60;;;12.40;44.60;;;;;;5073473;28;20235;-60
2024/03/08 11:49:20;;;;;;;5.70;3.10;;;11.70;45.50;;;;;;5073472;28;20404;-60
2024/03/08 11:51:46;;;;;;;2.60;2.03;;;11.80;44.90;;;;;;5073687;28;20491;-60
2024/03/08 11:54:15;;;;;;;3.97;2.70;;;12.00;45.70;;;;;;5073495;28;20419;-60
2024/03/08 11:56:44;;;;;;;4.60;2.80;;;12.10;44.20;;;;;;5073366;28;20535;-60
2024/03/08 11:59:13;;;;;;;5.00;3.10;;;12.50;45.40;;;;;;5072967;28;20613;-60
2024/03/08 12:01:39;;;;;;;4.40;2.60;;;12.30;43.80;;;;;;5073406;28;20412;-60
2024/03/08 12:04:06;;;;;;;1.93;1.70;;;12.30;43.10;;;;;;5072213;28;20404;-60
2024/03/08 12:06:41;;;;;;;3.43;2.57;;;12.40;43.30;;;;;;5073346;28;20404;-60
2024/03/08 12:09:12;;;;;;;4.03;2.97;;;12.70;42.70;;;;;;5072989;28;20441;-60
2024/03/08 12:11:38;;;;;;;3.53;2.50;;;12.80;41.90;;;;;;5073011;28;20399;-60
2024/03/08 12:14:06;;;;;;;3.07;2.23;;;12.80;42.90;;;;;;5073101;28;20411;-60
2024/03/08 12:16:32;;;;;;;2.33;2.13;;;12.50;41.10;;;;;;5072983;28;20536;-60
2024/03/08 12:18:58;;;;;;;2.23;2.13;;;12.10;42.00;;;;;;5072713;28;20507;-60
2024/03/08 12:21:29;;;;;;;3.37;2.00;;;11.80;43.60;;;;;;5073110;28;20458;-60
2024/03/08 12:24:08;;;;;;;3.00;2.40;;;12.20;42.80;;;;;;5072949;28;20533;-60
2024/03/08 12:26:36;;;;;;;4.40;3.33;;;12.40;43.20;;;;;;5072954;28;20407;-60
2024/03/08 12:29:16;;;;;;;4.20;2.83;;;12.30;43.90;;;;;;5072004;28;20497;-60
2024/03/08 12:31:42;;;;;;;2.90;2.60;;;12.10;43.50;;;;;;5073100;28;20407;-60
2024/03/08 12:34:09;;;;;;;2.77;2.50;;;11.70;43.40;;;;;;5072768;28;20955;-60
2024/03/08 12:36:36;;;;;;;2.40;1.90;;;11.80;43.70;;;;;;5072539;28;20505;-60
2024/03/08 12:39:03;;;;;;;2.63;2.00;;;12.20;43.60;;;;;;5072187;28;20937;-60
2024/03/08 12:41:29;;;;;;;2.73;1.93;;;12.50;42.20;;;;;;5072621;28;20448;-60
2024/03/08 12:43:55;;;;;;;4.53;2.83;;;12.70;43.20;;;;;;5072700;28;20898;-61
2024/03/08 12:46:29;;;;;;;4.43;3.00;;;12.80;43.90;;;;;;5072779;28;20915;-60
2024/03/08 12:48:55;;;;;;;2.20;1.87;;;12.60;42.90;;;;;;5071989;28;20449;-60
2024/03/08 12:51:21;;;;;;;3.97;2.87;;;12.60;40.90;;;;;;5072273;28;20397;-60